Pearblossom, California
Current Conditions -  °F | °C
As of 6:17 AM on Tuesday 27 Jan 2015 (Local Time) from KPMD Reporting Station
Haze Haze  
Wind Chill: 47°   Ceiling: 1900
Heat Index: 47°   Visibility: 5mi
Dew Point: 46°   Wind: 3mph
Humidity: 97%   Direction: 360°N
Pressure: 30.2"   Gusts: NA
Location:  34.51°N, 117.91°W
Report Text: KPMD 271417Z AUTO 36003KT 5SM BR FEW008 BKN019 OVC085 08/08 A3020 RMK AO2 T00830078
Loading
Personal Weather Stations






























Interactive Weather Map New forecast layout! Learn more

10-Day Weather Forecast

Advertisements
Track Severe Weather on mobile